createdAt,value
2023-03-22T00:00:17.696Z,80345.94
2023-03-22T00:01:59.058Z,80354.31
2023-03-22T00:03:40.386Z,80357.69
2023-03-22T00:05:21.714Z,80352.81
2023-03-22T00:07:03.008Z,80358.78
2023-03-22T00:08:44.331Z,80360.34
2023-03-22T00:10:25.639Z,80361.41
2023-03-22T00:12:06.914Z,80364.00
2023-03-22T00:13:48.239Z,80360.88
2023-03-22T00:15:29.531Z,80366.34
2023-03-22T00:17:10.818Z,80357.44
2023-03-22T00:18:52.115Z,80362.94
2023-03-22T00:20:33.382Z,80361.94
2023-03-22T00:22:14.705Z,80362.22
2023-03-22T00:23:56.044Z,80367.06
2023-03-22T00:25:37.336Z,80366.25
2023-03-22T00:27:18.729Z,80369.38
2023-03-22T00:29:00.018Z,80368.41
2023-03-22T00:30:41.335Z,80362.38
2023-03-22T00:32:22.707Z,80375.50
2023-03-22T00:34:03.974Z,80369.59
2023-03-22T00:35:45.328Z,80371.91
2023-03-22T00:37:26.653Z,80372.34
2023-03-22T00:39:07.962Z,80372.03
2023-03-22T00:40:49.262Z,80369.75
2023-03-22T00:42:30.560Z,80371.28
2023-03-22T00:44:11.857Z,80357.09
2023-03-22T00:45:53.178Z,80364.75
2023-03-22T00:47:34.496Z,80358.53
2023-03-22T00:49:15.769Z,80363.63
2023-03-22T00:50:57.054Z,80370.03
2023-03-22T00:52:38.392Z,80351.81
2023-03-22T00:54:19.687Z,80353.38
2023-03-22T00:56:00.976Z,80347.03
2023-03-22T00:57:42.284Z,80344.19
2023-03-22T00:59:23.651Z,80357.56
2023-03-22T01:01:04.967Z,80358.56
2023-03-22T01:02:46.295Z,80347.69
2023-03-22T01:04:27.583Z,80349.00
2023-03-22T01:06:08.855Z,80343.13
2023-03-22T01:07:50.153Z,80338.66
2023-03-22T01:09:31.458Z,80329.44
2023-03-22T01:11:12.778Z,80323.94
2023-03-22T01:12:54.085Z,80317.88
2023-03-22T01:14:35.416Z,80317.97
2023-03-22T01:16:16.808Z,80318.50
2023-03-22T01:17:58.112Z,80301.69
2023-03-22T01:19:39.398Z,80303.09
2023-03-22T01:21:20.695Z,80308.50
2023-03-22T01:23:01.982Z,80302.03
2023-03-22T01:24:43.303Z,80296.34
2023-03-22T01:26:24.629Z,80296.16
2023-03-22T01:28:05.946Z,80297.78
2023-03-22T01:29:47.293Z,80295.72
2023-03-22T01:31:28.594Z,80295.63
2023-03-22T01:33:09.869Z,80297.56
2023-03-22T01:34:51.154Z,80300.03
2023-03-22T01:36:32.418Z,80288.19
2023-03-22T01:38:13.702Z,80284.41
2023-03-22T01:39:54.980Z,80284.81
2023-03-22T01:41:36.257Z,80285.59
2023-03-22T01:43:17.587Z,80277.72
2023-03-22T01:44:58.866Z,80277.66
2023-03-22T01:46:40.263Z,80274.28
2023-03-22T01:48:21.618Z,80270.34
2023-03-22T01:50:02.882Z,80272.47
2023-03-22T01:51:44.153Z,80265.59
2023-03-22T01:53:25.630Z,80265.06
2023-03-22T01:55:06.945Z,80262.13
2023-03-22T01:56:48.217Z,80257.09
2023-03-22T01:58:29.541Z,80258.19
2023-03-22T02:00:10.816Z,80256.66
2023-03-22T02:01:52.065Z,80257.09
2023-03-22T02:03:33.347Z,80262.31
2023-03-22T02:05:14.620Z,80256.03
2023-03-22T02:06:55.890Z,80252.56
2023-03-22T02:08:37.164Z,80251.84
2023-03-22T02:10:18.449Z,80263.13
2023-03-22T02:11:59.741Z,80257.84
2023-03-22T02:13:41.009Z,80250.28
2023-03-22T02:15:22.289Z,80242.75
2023-03-22T02:17:03.593Z,80247.97
2023-03-22T02:18:44.878Z,80250.47
2023-03-22T02:20:26.185Z,80244.97
2023-03-22T02:22:07.480Z,80245.59
2023-03-22T02:23:48.814Z,80236.97
2023-03-22T02:25:30.105Z,80231.72
2023-03-22T02:27:11.378Z,80234.13
2023-03-22T02:28:52.700Z,80236.34
2023-03-22T02:30:33.980Z,80229.41
2023-03-22T02:32:15.256Z,80234.69
2023-03-22T02:33:56.624Z,80234.22
2023-03-22T02:35:37.916Z,80227.53
2023-03-22T02:37:19.268Z,80232.38
2023-03-22T02:39:00.598Z,80230.81
2023-03-22T02:40:41.961Z,80228.53
2023-03-22T02:42:23.231Z,80232.38
2023-03-22T02:44:04.531Z,80223.69
2023-03-22T02:45:45.811Z,80226.03
2023-03-22T02:47:27.106Z,80222.38
2023-03-22T02:49:08.403Z,80220.00
2023-03-22T02:50:49.672Z,80215.28
2023-03-22T02:52:30.983Z,80217.13
2023-03-22T02:54:12.359Z,80224.94
2023-03-22T02:55:53.702Z,80216.53
2023-03-22T02:57:34.965Z,80227.81
2023-03-22T02:59:16.237Z,80221.75
2023-03-22T03:00:57.568Z,80227.69
2023-03-22T03:02:38.887Z,80222.94
2023-03-22T03:04:20.200Z,80227.81
2023-03-22T03:06:01.488Z,80228.91
2023-03-22T03:07:42.829Z,80237.19
2023-03-22T03:09:24.179Z,80233.59
2023-03-22T03:11:05.508Z,80233.78
2023-03-22T03:12:46.803Z,80234.22
2023-03-22T03:14:28.102Z,80233.56
2023-03-22T03:16:09.434Z,80232.72
2023-03-22T03:17:50.764Z,80222.19
2023-03-22T03:19:32.305Z,80228.19
2023-03-22T03:21:13.594Z,80224.63
2023-03-22T03:22:54.876Z,80226.91
2023-03-22T03:24:36.173Z,80224.41
2023-03-22T03:26:17.471Z,80231.44
2023-03-22T03:27:58.825Z,80223.72
2023-03-22T03:29:40.188Z,80231.53
2023-03-22T03:31:21.508Z,80219.25
2023-03-22T03:33:02.835Z,80230.19
2023-03-22T03:34:44.158Z,80222.97
2023-03-22T03:36:25.426Z,80224.91
2023-03-22T03:38:06.721Z,80219.81
2023-03-22T03:39:48.034Z,80217.63
2023-03-22T03:41:29.328Z,80213.34
2023-03-22T03:43:10.613Z,80216.13
2023-03-22T03:44:51.916Z,80208.31
2023-03-22T03:46:33.210Z,80217.94
2023-03-22T03:48:14.518Z,80210.06
2023-03-22T03:49:55.829Z,80213.88
2023-03-22T03:51:37.102Z,80210.78
2023-03-22T03:53:18.418Z,80211.91
2023-03-22T03:54:59.768Z,80201.84
2023-03-22T03:56:41.077Z,80218.38
2023-03-22T03:58:22.391Z,80221.56
2023-03-22T04:00:03.674Z,80214.44
2023-03-22T04:01:44.984Z,80217.69
2023-03-22T04:03:26.285Z,80215.13
2023-03-22T04:05:07.850Z,80221.94
2023-03-22T04:06:49.156Z,80230.53
2023-03-22T04:08:30.481Z,80242.88
2023-03-22T04:10:11.778Z,80230.16
2023-03-22T04:11:53.074Z,80230.69
2023-03-22T04:13:34.393Z,80231.69
2023-03-22T04:15:15.705Z,80223.78
2023-03-22T04:16:57.121Z,80238.47
2023-03-22T04:18:38.426Z,80231.56
2023-03-22T04:20:19.750Z,80234.88
2023-03-22T04:22:01.031Z,80243.97
2023-03-22T04:23:42.297Z,80244.84
2023-03-22T04:25:23.581Z,80243.34
2023-03-22T04:27:04.901Z,80247.16
2023-03-22T04:28:46.172Z,80245.72
2023-03-22T04:30:27.503Z,80238.84
2023-03-22T04:32:08.862Z,80241.44
2023-03-22T04:33:50.156Z,80248.00
2023-03-22T04:35:31.494Z,80244.69
2023-03-22T04:37:12.777Z,80248.38
2023-03-22T04:38:54.054Z,80241.59
2023-03-22T04:40:35.377Z,80239.78
2023-03-22T04:42:16.809Z,80242.41
2023-03-22T04:43:58.160Z,80245.59
2023-03-22T04:45:39.489Z,80239.44
2023-03-22T04:47:20.796Z,80239.41
2023-03-22T04:49:02.119Z,80234.78
2023-03-22T04:50:43.419Z,80240.84
2023-03-22T04:52:24.718Z,80244.06
2023-03-22T04:54:06.022Z,80233.13
2023-03-22T04:55:47.351Z,80240.09
2023-03-22T04:57:28.652Z,80230.63
2023-03-22T04:59:09.950Z,80238.19
2023-03-22T05:00:51.303Z,80242.44
2023-03-22T05:02:32.636Z,80235.63
2023-03-22T05:04:13.955Z,80234.47
2023-03-22T05:05:55.271Z,80235.28
2023-03-22T05:07:36.581Z,80233.91
2023-03-22T05:09:17.902Z,80227.44
2023-03-22T05:10:59.215Z,80230.31
2023-03-22T05:12:40.517Z,80221.53
2023-03-22T05:14:21.893Z,80221.88
2023-03-22T05:16:03.306Z,80228.75
2023-03-22T05:17:44.599Z,80226.56
2023-03-22T05:19:25.937Z,80228.00
2023-03-22T05:21:07.248Z,80231.56
2023-03-22T05:22:48.540Z,80229.25
2023-03-22T05:24:29.843Z,80227.94
2023-03-22T05:26:11.185Z,80239.94
2023-03-22T05:27:52.476Z,80238.94
2023-03-22T05:29:33.750Z,80237.00
2023-03-22T05:31:15.163Z,80235.25
2023-03-22T05:32:56.506Z,80235.72
2023-03-22T05:34:37.877Z,80229.88
2023-03-22T05:36:19.148Z,80233.28
2023-03-22T05:38:00.442Z,80234.34
2023-03-22T05:39:41.736Z,80236.72
2023-03-22T05:41:23.035Z,80241.41
2023-03-22T05:43:04.299Z,80249.38
2023-03-22T05:44:45.599Z,80252.38
2023-03-22T05:46:27.003Z,80249.41
2023-03-22T05:48:08.408Z,80247.91
2023-03-22T05:49:49.927Z,80254.69
2023-03-22T05:51:31.266Z,80247.91
2023-03-22T05:53:12.570Z,80250.28
2023-03-22T05:54:53.927Z,80254.63
2023-03-22T05:56:35.238Z,80263.09
2023-03-22T05:58:16.586Z,80265.56
2023-03-22T05:59:57.853Z,80264.84
2023-03-22T06:01:39.283Z,80266.19
2023-03-22T06:03:20.729Z,80274.28
2023-03-22T06:05:02.127Z,80267.69
2023-03-22T06:06:43.421Z,80269.44
2023-03-22T06:08:26.528Z,80267.13
2023-03-22T06:10:08.008Z,80273.09
2023-03-22T06:11:49.282Z,80276.16
2023-03-22T06:13:30.623Z,80278.16
2023-03-22T06:15:11.950Z,80273.44
2023-03-22T06:16:53.256Z,80280.81
2023-03-22T06:18:34.665Z,80282.16
2023-03-22T06:20:15.982Z,80284.56
2023-03-22T06:21:57.258Z,80278.94
2023-03-22T06:23:38.613Z,80285.34
2023-03-22T06:25:19.906Z,80282.88
2023-03-22T06:27:01.198Z,80280.50
2023-03-22T06:28:42.521Z,80281.94
2023-03-22T06:30:23.869Z,80285.50
2023-03-22T06:32:05.225Z,80289.56
2023-03-22T06:33:46.527Z,80287.00
2023-03-22T06:35:27.953Z,80284.06
2023-03-22T06:37:09.281Z,80286.53
2023-03-22T06:38:50.635Z,80281.31
2023-03-22T06:40:32.014Z,80281.94
2023-03-22T06:42:13.325Z,80280.03
2023-03-22T06:43:54.609Z,80283.91
2023-03-22T06:45:35.910Z,80286.63
2023-03-22T06:47:17.240Z,80280.31
2023-03-22T06:48:58.525Z,80277.47
2023-03-22T06:50:41.827Z,80271.50
2023-03-22T06:52:26.268Z,80269.25
2023-03-22T06:54:07.566Z,80269.50
2023-03-22T06:55:48.866Z,80262.50
2023-03-22T06:57:30.205Z,80270.09
2023-03-22T06:59:11.633Z,80261.34
2023-03-22T07:00:52.958Z,80267.81
2023-03-22T07:02:34.256Z,80269.72
2023-03-22T07:04:15.605Z,80266.44
2023-03-22T07:05:56.940Z,80264.97
2023-03-22T07:07:38.256Z,80274.03
2023-03-22T07:09:19.617Z,80273.28
2023-03-22T07:11:00.972Z,80269.63
2023-03-22T07:12:42.434Z,80267.13
2023-03-22T07:14:23.903Z,80271.94
2023-03-22T07:16:05.301Z,80261.88
2023-03-22T07:17:46.658Z,80256.47
2023-03-22T07:19:27.950Z,80264.97
2023-03-22T07:21:09.262Z,80267.69
2023-03-22T07:22:50.540Z,80268.53
2023-03-22T07:24:31.824Z,80271.25
2023-03-22T07:26:13.138Z,80271.81
2023-03-22T07:27:54.421Z,80272.50
2023-03-22T07:29:35.723Z,80275.47
2023-03-22T07:31:17.053Z,80267.72
2023-03-22T07:32:58.328Z,80268.94
2023-03-22T07:34:39.595Z,80271.41
2023-03-22T07:36:20.922Z,80269.31
2023-03-22T07:38:02.207Z,80277.06
2023-03-22T07:39:43.518Z,80274.84
2023-03-22T07:41:24.826Z,80268.47
2023-03-22T07:43:06.112Z,80267.72
2023-03-22T07:44:47.527Z,80280.59
2023-03-22T07:46:28.978Z,80282.28
2023-03-22T07:48:10.371Z,80279.09
2023-03-22T07:49:51.747Z,80283.97
2023-03-22T07:51:33.043Z,80281.44
2023-03-22T07:53:14.332Z,80285.97
2023-03-22T07:54:55.646Z,80285.31
2023-03-22T07:56:36.938Z,80286.78
2023-03-22T07:58:18.234Z,80283.56
2023-03-22T07:59:59.562Z,80289.81
2023-03-22T08:01:40.964Z,80287.50
2023-03-22T08:03:22.434Z,80286.34
2023-03-22T08:05:03.738Z,80282.84
2023-03-22T08:06:45.038Z,80294.09
2023-03-22T08:08:26.375Z,80297.97
2023-03-22T08:10:07.667Z,80291.13
2023-03-22T08:11:48.981Z,80292.91
2023-03-22T08:13:30.264Z,80295.00
2023-03-22T08:15:11.558Z,80291.16
2023-03-22T08:16:52.874Z,80300.72
2023-03-22T08:18:34.146Z,80297.19
2023-03-22T08:20:15.413Z,80298.28
2023-03-22T08:21:56.743Z,80299.06
2023-03-22T08:23:42.147Z,80300.88
2023-03-22T08:25:23.763Z,80304.75
2023-03-22T08:27:05.091Z,80305.34
2023-03-22T08:28:46.368Z,80303.38
2023-03-22T08:30:27.728Z,80296.00
2023-03-22T08:32:09.071Z,80305.59
2023-03-22T08:33:50.421Z,80297.53
2023-03-22T08:35:31.793Z,80293.81
2023-03-22T08:37:13.108Z,80313.94
2023-03-22T08:38:54.386Z,80306.34
2023-03-22T08:40:35.721Z,80303.44
2023-03-22T08:42:17.120Z,80301.59
2023-03-22T08:43:58.428Z,80297.00
2023-03-22T08:45:40.042Z,80291.13
2023-03-22T08:47:21.698Z,80282.81
2023-03-22T08:49:03.076Z,80278.72
2023-03-22T08:50:44.447Z,80278.38
2023-03-22T08:52:25.811Z,80271.47
2023-03-22T08:54:07.093Z,80264.94
2023-03-22T08:55:48.432Z,80265.84
2023-03-22T08:57:29.761Z,80259.25
2023-03-22T08:59:11.052Z,80258.81
2023-03-22T09:00:52.566Z,80255.03
2023-03-22T09:02:33.986Z,80255.22
2023-03-22T09:04:15.294Z,80245.38
2023-03-22T09:05:56.708Z,80248.66
2023-03-22T09:07:38.040Z,80242.91
2023-03-22T09:09:19.308Z,80240.66
2023-03-22T09:11:00.671Z,80242.22
2023-03-22T09:12:41.999Z,80228.28
2023-03-22T09:14:23.291Z,80231.97
2023-03-22T09:16:04.669Z,80218.00
2023-03-22T09:17:45.990Z,80216.56
2023-03-22T09:19:27.283Z,80212.09
2023-03-22T09:21:08.604Z,80202.38
2023-03-22T09:22:49.953Z,80200.00
2023-03-22T09:24:31.263Z,80194.81
2023-03-22T09:26:12.600Z,80192.16
2023-03-22T09:27:54.057Z,80201.41
2023-03-22T09:29:35.327Z,80193.59
2023-03-22T09:31:19.120Z,80196.84
2023-03-22T09:33:01.569Z,80197.53
2023-03-22T09:34:42.864Z,80201.41
2023-03-22T09:36:24.162Z,80201.25
2023-03-22T09:38:05.477Z,80206.50
2023-03-22T09:39:46.821Z,80209.03
2023-03-22T09:41:28.117Z,80210.19
2023-03-22T09:43:09.440Z,80210.31
2023-03-22T09:44:50.750Z,80211.69
2023-03-22T09:46:32.127Z,80216.91
2023-03-22T09:48:13.490Z,80212.38
2023-03-22T09:49:54.814Z,80214.88
2023-03-22T09:51:36.147Z,80218.91
2023-03-22T09:53:17.435Z,80223.44
2023-03-22T09:54:58.730Z,80219.50
2023-03-22T09:56:40.062Z,80224.97
2023-03-22T09:58:21.356Z,80228.38
2023-03-22T10:00:02.678Z,80228.38
2023-03-22T10:01:44.161Z,80221.16
2023-03-22T10:03:25.642Z,80226.38
2023-03-22T10:05:07.007Z,80228.94
2023-03-22T10:06:48.307Z,80228.88
2023-03-22T10:08:29.612Z,80224.41
2023-03-22T10:10:10.898Z,80231.66
2023-03-22T10:11:52.228Z,80232.94
2023-03-22T10:13:33.535Z,80233.56
2023-03-22T10:15:14.959Z,80232.25
2023-03-22T10:16:56.608Z,80235.50
2023-03-22T10:18:38.028Z,80228.84
2023-03-22T10:20:19.336Z,80233.97
2023-03-22T10:22:00.675Z,80235.91
2023-03-22T10:23:44.019Z,80230.66
2023-03-22T10:25:25.468Z,80236.47
2023-03-22T10:27:06.794Z,80231.75
2023-03-22T10:28:48.167Z,80235.47
2023-03-22T10:30:29.453Z,80243.25
2023-03-22T10:32:10.785Z,80236.53
2023-03-22T10:33:52.036Z,80226.50
2023-03-22T10:35:33.362Z,80235.16
2023-03-22T10:37:14.748Z,80229.63
2023-03-22T10:38:56.177Z,80234.06
2023-03-22T10:40:37.560Z,80236.25
2023-03-22T10:42:18.841Z,80230.69
2023-03-22T10:44:00.144Z,80227.16
2023-03-22T10:45:41.776Z,80231.50
2023-03-22T10:47:23.320Z,80225.22
2023-03-22T10:49:04.610Z,80227.69
2023-03-22T10:50:45.934Z,80229.97
2023-03-22T10:52:27.253Z,80230.41
2023-03-22T10:54:08.580Z,80228.81
2023-03-22T10:55:49.890Z,80229.25
2023-03-22T10:57:31.349Z,80230.16
2023-03-22T10:59:12.746Z,80236.16
2023-03-22T11:00:54.198Z,80232.28
2023-03-22T11:02:35.634Z,80230.94
2023-03-22T11:04:17.006Z,80227.06
2023-03-22T11:05:58.347Z,80223.50
2023-03-22T11:07:39.660Z,80223.03
2023-03-22T11:09:20.962Z,80222.16
2023-03-22T11:11:02.306Z,80224.03
2023-03-22T11:12:43.622Z,80220.25
2023-03-22T11:14:24.944Z,80219.34
2023-03-22T11:16:06.330Z,80212.69
2023-03-22T11:17:47.651Z,80212.94
2023-03-22T11:19:28.947Z,80213.97
2023-03-22T11:21:10.275Z,80212.66
2023-03-22T11:22:51.553Z,80206.72
2023-03-22T11:24:32.914Z,80213.63
2023-03-22T11:26:14.315Z,80216.56
2023-03-22T11:27:55.638Z,80218.38
2023-03-22T11:29:36.975Z,80214.28
2023-03-22T11:31:19.078Z,80223.63
2023-03-22T11:33:00.719Z,80221.59
2023-03-22T11:34:42.074Z,80217.16
2023-03-22T11:36:23.378Z,80215.22
2023-03-22T11:38:05.000Z,80217.22
2023-03-22T11:39:46.490Z,80222.25
2023-03-22T11:41:27.838Z,80222.94
2023-03-22T11:43:09.171Z,80224.34
2023-03-22T11:44:50.563Z,80213.28
2023-03-22T11:46:32.035Z,80208.03
2023-03-22T11:48:13.629Z,80212.59
2023-03-22T11:49:54.981Z,80205.38
2023-03-22T11:51:36.306Z,80210.59
2023-03-22T11:53:17.603Z,80202.66
2023-03-22T11:54:58.917Z,80206.03
2023-03-22T11:56:40.315Z,80205.22
2023-03-22T11:58:23.589Z,80205.91
2023-03-22T12:00:05.344Z,80197.31
2023-03-22T12:01:46.747Z,80204.66
2023-03-22T12:03:28.099Z,80213.16
2023-03-22T12:05:09.642Z,80198.13
2023-03-22T12:06:50.999Z,80203.94
2023-03-22T12:08:32.321Z,80192.50
2023-03-22T12:10:13.614Z,80190.91
2023-03-22T12:11:54.964Z,80192.69
2023-03-22T12:13:36.341Z,80188.41
2023-03-22T12:15:17.644Z,80189.06
2023-03-22T12:16:58.967Z,80181.59
2023-03-22T12:18:40.260Z,80186.56
2023-03-22T12:20:21.580Z,80184.69
2023-03-22T12:22:02.898Z,80181.22
2023-03-22T12:23:44.312Z,80185.16
2023-03-22T12:25:25.677Z,80185.47
2023-03-22T12:27:07.033Z,80181.03
2023-03-22T12:28:48.347Z,80172.06
2023-03-22T12:30:29.647Z,80179.91
2023-03-22T12:32:10.967Z,80178.19
2023-03-22T12:33:52.331Z,80172.31
2023-03-22T12:35:33.668Z,80171.75
2023-03-22T12:37:15.007Z,80176.09
2023-03-22T12:38:56.623Z,80171.47
2023-03-22T12:40:38.427Z,80169.19
2023-03-22T12:42:20.005Z,80166.00
2023-03-22T12:44:01.310Z,80171.50
2023-03-22T12:45:42.819Z,80161.59
2023-03-22T12:47:24.338Z,80163.94
2023-03-22T12:49:05.784Z,80167.53
2023-03-22T12:50:47.216Z,80158.75
2023-03-22T12:52:34.712Z,80165.72
2023-03-22T12:54:22.484Z,80167.44
2023-03-22T12:56:03.788Z,80166.69
2023-03-22T12:57:45.167Z,80171.50
2023-03-22T12:59:26.616Z,80173.44
2023-03-22T13:01:07.969Z,80163.97
2023-03-22T13:02:49.358Z,80156.91
2023-03-22T13:04:30.657Z,80164.66
2023-03-22T13:06:11.968Z,80151.63
2023-03-22T13:07:53.291Z,80147.97
2023-03-22T13:09:34.585Z,80152.25
2023-03-22T13:11:15.987Z,80146.00
2023-03-22T13:12:57.316Z,80152.81
2023-03-22T13:14:39.000Z,80154.94
2023-03-22T13:16:20.400Z,80141.94
2023-03-22T13:18:01.811Z,80154.00
2023-03-22T13:19:43.112Z,80149.56
2023-03-22T13:21:24.429Z,80140.94
2023-03-22T13:23:08.277Z,80160.50
2023-03-22T13:24:49.553Z,80151.50
2023-03-22T13:26:30.853Z,80154.19
2023-03-22T13:28:12.204Z,80150.22
2023-03-22T13:29:53.488Z,80147.03
2023-03-22T13:31:34.848Z,80151.56
2023-03-22T13:33:16.277Z,80150.25
2023-03-22T13:34:57.640Z,80149.50
2023-03-22T13:36:38.905Z,80153.53
2023-03-22T13:38:20.236Z,80151.34
2023-03-22T13:40:01.587Z,80146.25
2023-03-22T13:41:42.883Z,80150.28
2023-03-22T13:43:24.209Z,80152.78
2023-03-22T13:45:05.482Z,80152.56
2023-03-22T13:46:46.886Z,80148.88
2023-03-22T13:48:28.353Z,80147.59
2023-03-22T13:50:09.677Z,80154.22
2023-03-22T13:51:51.066Z,80145.03
2023-03-22T13:53:32.342Z,80146.97
2023-03-22T13:55:13.658Z,80144.31
2023-03-22T13:56:55.008Z,80137.78
2023-03-22T13:58:36.461Z,80135.88
2023-03-22T14:00:20.280Z,80143.56
2023-03-22T14:02:02.092Z,80140.19
2023-03-22T14:03:43.506Z,80134.03
2023-03-22T14:05:24.895Z,80128.34
2023-03-22T14:07:06.187Z,80143.03
2023-03-22T14:08:47.516Z,80129.16
2023-03-22T14:10:28.857Z,80131.06
2023-03-22T14:12:10.235Z,80129.16
2023-03-22T14:13:51.572Z,80130.63
2023-03-22T14:15:32.929Z,80130.41
2023-03-22T14:17:14.496Z,80134.28
2023-03-22T14:18:55.817Z,80131.72
2023-03-22T14:20:39.521Z,80125.69
